createdAt,value
2022-07-25T00:00:03.463Z,20.74
2022-07-25T00:02:33.281Z,21.54
2022-07-25T00:05:03.113Z,21.51
2022-07-25T00:07:33.016Z,20.48
2022-07-25T00:10:02.800Z,21.29
2022-07-25T00:12:31.358Z,22.06
2022-07-25T00:15:00.151Z,22.14
2022-07-25T00:17:28.601Z,21.69
2022-07-25T00:19:57.060Z,20.31
2022-07-25T00:22:25.569Z,22.17
2022-07-25T00:24:53.989Z,21.20
2022-07-25T00:27:23.770Z,22.55
2022-07-25T00:29:52.196Z,22.91
2022-07-25T00:32:20.684Z,22.92
2022-07-25T00:34:49.031Z,22.63
2022-07-25T00:37:17.442Z,22.12
2022-07-25T00:39:46.622Z,22.45
2022-07-25T00:42:16.435Z,21.82
2022-07-25T00:44:46.228Z,21.96
2022-07-25T00:47:14.635Z,22.55
2022-07-25T00:49:43.308Z,22.67
2022-07-25T00:52:12.874Z,22.95
2022-07-25T00:54:41.282Z,22.92
2022-07-25T00:57:09.666Z,23.00
2022-07-25T00:59:38.300Z,23.15
2022-07-25T01:02:08.960Z,23.09
2022-07-25T01:04:37.455Z,22.90
2022-07-25T01:07:06.676Z,22.88
2022-07-25T01:09:35.472Z,22.95
2022-07-25T01:12:03.950Z,22.99
2022-07-25T01:14:33.955Z,23.04
2022-07-25T01:17:02.312Z,23.14
2022-07-25T01:19:32.090Z,23.17
2022-07-25T01:22:02.183Z,23.14
2022-07-25T01:24:31.012Z,22.98
2022-07-25T01:26:59.399Z,23.03
2022-07-25T01:29:27.873Z,22.17
2022-07-25T01:31:56.216Z,23.13
2022-07-25T01:34:24.577Z,22.95
2022-07-25T01:36:53.054Z,22.26
2022-07-25T01:39:22.857Z,21.65
2022-07-25T01:41:51.309Z,22.18
2022-07-25T01:44:19.649Z,21.70
2022-07-25T01:46:48.173Z,21.75
2022-07-25T01:49:16.642Z,22.08
2022-07-25T01:51:45.027Z,21.78
2022-07-25T01:54:13.337Z,21.53
2022-07-25T01:56:47.634Z,21.74
2022-07-25T01:59:16.968Z,21.48
2022-07-25T02:01:45.491Z,21.78
2022-07-25T02:04:14.078Z,21.53
2022-07-25T02:06:42.732Z,20.78
2022-07-25T02:09:11.676Z,20.45
2022-07-25T02:11:40.050Z,20.39
2022-07-25T02:14:09.985Z,20.42
2022-07-25T02:16:38.460Z,20.30
2022-07-25T02:19:06.956Z,20.59
2022-07-25T02:21:35.680Z,21.45
2022-07-25T02:24:04.720Z,21.88
2022-07-25T02:26:33.389Z,21.85
2022-07-25T02:29:01.814Z,22.24
2022-07-25T02:31:31.666Z,22.06
2022-07-25T02:34:00.018Z,21.56
2022-07-25T02:36:28.459Z,21.82
2022-07-25T02:38:56.823Z,21.77
2022-07-25T02:41:25.225Z,21.82
2022-07-25T02:43:53.536Z,21.84
2022-07-25T02:46:22.780Z,22.19
2022-07-25T02:48:52.783Z,22.02
2022-07-25T02:51:21.214Z,21.80
2022-07-25T02:53:58.557Z,21.38
2022-07-25T02:56:29.778Z,21.75
2022-07-25T02:58:58.788Z,21.83
2022-07-25T03:01:27.293Z,21.98
2022-07-25T03:03:57.564Z,21.97
2022-07-25T03:06:26.016Z,21.64
2022-07-25T03:08:54.324Z,21.97
2022-07-25T03:11:22.877Z,22.23
2022-07-25T03:13:51.217Z,22.24
2022-07-25T03:16:19.718Z,22.27
2022-07-25T03:18:48.265Z,22.21
2022-07-25T03:21:18.159Z,22.14
2022-07-25T03:23:51.981Z,22.13
2022-07-25T03:26:22.116Z,22.21
2022-07-25T03:28:50.483Z,22.22
2022-07-25T03:31:19.988Z,22.23
2022-07-25T03:33:48.439Z,22.18
2022-07-25T03:36:20.703Z,22.27
2022-07-25T03:38:49.100Z,22.48
2022-07-25T03:41:17.496Z,22.63
2022-07-25T03:43:48.114Z,22.68
2022-07-25T03:46:16.893Z,22.73
2022-07-25T03:48:47.935Z,21.98
2022-07-25T03:51:20.325Z,21.42
2022-07-25T03:54:08.142Z,20.97
2022-07-25T03:56:43.646Z,20.99
2022-07-25T03:59:13.897Z,21.34
2022-07-25T04:01:43.183Z,21.93
2022-07-25T04:04:12.104Z,21.49
2022-07-25T04:06:42.285Z,21.67
2022-07-25T04:09:11.937Z,22.16
2022-07-25T04:11:40.884Z,22.04
2022-07-25T04:14:09.721Z,21.37
2022-07-25T04:16:38.458Z,21.96
2022-07-25T04:19:08.687Z,22.26
2022-07-25T04:21:37.217Z,21.97
2022-07-25T04:24:07.688Z,22.20
2022-07-25T04:26:36.395Z,21.93
2022-07-25T04:29:04.931Z,22.10
2022-07-25T04:31:33.417Z,22.43
2022-07-25T04:34:01.833Z,22.71
2022-07-25T04:36:30.270Z,22.03
2022-07-25T04:38:58.649Z,21.80
2022-07-25T04:41:28.428Z,21.93
2022-07-25T04:43:57.004Z,21.93
2022-07-25T04:46:25.425Z,22.15
2022-07-25T04:48:54.160Z,22.32
2022-07-25T04:51:22.771Z,22.45
2022-07-25T04:53:51.233Z,22.40
2022-07-25T04:56:19.653Z,22.32
2022-07-25T04:58:49.510Z,22.40
2022-07-25T05:01:18.133Z,23.16
2022-07-25T05:03:50.057Z,23.22
2022-07-25T05:06:19.114Z,23.25
2022-07-25T05:08:47.545Z,23.57
2022-07-25T05:11:15.948Z,24.10
2022-07-25T05:13:44.758Z,23.41
2022-07-25T05:16:14.639Z,23.38
2022-07-25T05:18:43.146Z,23.62
2022-07-25T05:21:12.703Z,24.00
2022-07-25T05:23:41.259Z,24.10
2022-07-25T05:26:09.662Z,24.19
2022-07-25T05:28:38.077Z,24.30
2022-07-25T05:31:06.558Z,24.08
2022-07-25T05:33:36.853Z,24.06
2022-07-25T05:36:06.179Z,23.71
2022-07-25T05:38:34.889Z,23.77
2022-07-25T05:41:03.713Z,23.41
2022-07-25T05:43:32.285Z,23.61
2022-07-25T05:46:04.142Z,23.58
2022-07-25T05:48:32.774Z,24.11
2022-07-25T05:51:02.909Z,23.72
2022-07-25T05:53:31.393Z,22.59
2022-07-25T05:55:59.958Z,24.06
2022-07-25T05:58:30.019Z,24.05
2022-07-25T06:00:59.492Z,24.23
2022-07-25T06:03:28.005Z,24.78
2022-07-25T06:05:57.590Z,24.69
2022-07-25T06:08:28.880Z,24.80
2022-07-25T06:10:57.874Z,24.78
2022-07-25T06:13:26.250Z,25.06
2022-07-25T06:15:56.721Z,25.30
2022-07-25T06:18:25.904Z,25.35
2022-07-25T06:20:54.565Z,25.55
2022-07-25T06:23:23.008Z,25.79
2022-07-25T06:25:57.411Z,25.81
2022-07-25T06:28:25.815Z,25.73
2022-07-25T06:30:54.259Z,25.31
2022-07-25T06:33:22.897Z,25.75
2022-07-25T06:35:51.223Z,25.66
2022-07-25T06:38:19.714Z,25.27
2022-07-25T06:40:48.169Z,24.83
2022-07-25T06:43:17.876Z,24.74
2022-07-25T06:45:47.682Z,24.33
2022-07-25T06:48:16.180Z,24.97
2022-07-25T06:50:45.022Z,24.55
2022-07-25T06:53:13.457Z,24.64
2022-07-25T06:55:42.051Z,24.44
2022-07-25T06:58:10.471Z,24.84
2022-07-25T07:00:40.762Z,24.95
2022-07-25T07:03:09.442Z,25.07
2022-07-25T07:05:38.199Z,25.21
2022-07-25T07:08:07.302Z,25.10
2022-07-25T07:10:35.748Z,24.73
2022-07-25T07:13:07.718Z,24.42
2022-07-25T07:15:36.383Z,25.20
2022-07-25T07:18:08.142Z,25.59
2022-07-25T07:20:36.710Z,25.93
2022-07-25T07:23:05.693Z,26.50
2022-07-25T07:25:34.668Z,26.24
2022-07-25T07:28:03.417Z,26.88
2022-07-25T07:30:58.657Z,26.66
2022-07-25T07:33:22.497Z,27.42
2022-07-25T07:35:50.939Z,27.76
2022-07-25T07:38:19.372Z,27.95
2022-07-25T07:40:47.706Z,28.55
2022-07-25T07:43:16.233Z,28.41
2022-07-25T07:45:45.119Z,28.33
2022-07-25T07:48:15.985Z,28.73
2022-07-25T07:50:45.934Z,28.65
2022-07-25T07:53:14.327Z,29.66
2022-07-25T07:55:44.596Z,29.49
2022-07-25T07:58:15.857Z,29.40
2022-07-25T08:00:45.205Z,30.06
2022-07-25T08:03:13.867Z,30.32
2022-07-25T08:05:43.691Z,30.54
2022-07-25T08:08:15.533Z,29.65
2022-07-25T08:10:45.403Z,30.04
2022-07-25T08:13:15.421Z,30.01
2022-07-25T08:15:44.700Z,30.26
2022-07-25T08:18:17.679Z,30.23
2022-07-25T08:20:46.815Z,30.39
2022-07-25T08:23:16.881Z,30.96
2022-07-25T08:25:47.058Z,31.08
2022-07-25T08:28:15.663Z,30.90
2022-07-25T08:30:44.903Z,31.18
2022-07-25T08:33:16.339Z,31.66
2022-07-25T08:35:48.693Z,32.83
2022-07-25T08:38:18.441Z,32.94
2022-07-25T08:40:47.016Z,32.50
2022-07-25T08:43:17.080Z,33.03
2022-07-25T08:45:47.631Z,32.31
2022-07-25T08:48:18.351Z,32.91
2022-07-25T08:50:48.071Z,32.14
2022-07-25T08:53:36.130Z,32.48
2022-07-25T08:56:20.484Z,33.58
2022-07-25T08:58:49.834Z,33.01
2022-07-25T09:01:18.400Z,32.49
2022-07-25T09:03:46.783Z,32.85
2022-07-25T09:06:17.577Z,33.61
2022-07-25T09:08:54.827Z,33.04
2022-07-25T09:11:31.967Z,33.42
2022-07-25T09:14:02.902Z,32.75
2022-07-25T09:16:34.641Z,32.58
2022-07-25T09:19:14.521Z,32.11
2022-07-25T09:21:45.603Z,32.61
2022-07-25T09:24:18.342Z,32.11
2022-07-25T09:26:49.470Z,32.60
2022-07-25T09:29:22.986Z,33.28
2022-07-25T09:31:52.368Z,33.50
2022-07-25T09:34:38.058Z,33.17
2022-07-25T09:37:08.255Z,33.83
2022-07-25T09:39:46.308Z,33.69
2022-07-25T09:42:20.696Z,34.04
2022-07-25T09:45:06.775Z,34.99
2022-07-25T09:47:38.602Z,34.70
2022-07-25T09:50:08.704Z,34.86
2022-07-25T09:52:38.212Z,35.89
2022-07-25T09:55:10.379Z,36.12
2022-07-25T09:57:38.866Z,35.87
2022-07-25T10:00:09.646Z,35.40
2022-07-25T10:02:48.130Z,36.03
2022-07-25T10:05:20.802Z,35.67
2022-07-25T10:07:51.869Z,35.84
2022-07-25T10:10:27.861Z,36.01
2022-07-25T10:13:09.748Z,35.74
2022-07-25T10:15:47.513Z,35.53
2022-07-25T10:18:17.281Z,36.11
2022-07-25T10:20:46.662Z,35.12
2022-07-25T10:23:23.296Z,36.09
2022-07-25T10:26:09.652Z,35.62
2022-07-25T10:28:40.850Z,35.71
2022-07-25T10:31:25.030Z,36.31
2022-07-25T10:33:55.657Z,36.33
2022-07-25T10:36:25.830Z,36.75
2022-07-25T10:38:58.597Z,37.15
2022-07-25T10:41:29.998Z,36.28
2022-07-25T10:44:02.219Z,36.06
2022-07-25T10:46:32.753Z,36.48
2022-07-25T10:49:03.787Z,37.21
2022-07-25T10:51:39.459Z,36.70
2022-07-25T10:54:17.098Z,37.03
2022-07-25T10:56:58.671Z,37.03
2022-07-25T10:59:28.721Z,36.78
2022-07-25T11:01:59.579Z,36.18
2022-07-25T11:04:27.981Z,35.67
2022-07-25T11:06:56.578Z,36.00
2022-07-25T11:09:27.825Z,37.15
2022-07-25T11:11:59.573Z,36.45
2022-07-25T11:14:32.940Z,35.51
2022-07-25T11:17:14.671Z,36.40
2022-07-25T11:19:43.958Z,35.96
2022-07-25T11:22:13.357Z,36.00
2022-07-25T11:24:44.698Z,35.61
2022-07-25T11:27:21.970Z,36.31
2022-07-25T11:29:50.624Z,37.02
2022-07-25T11:32:19.267Z,36.87
2022-07-25T11:34:50.592Z,38.13
2022-07-25T11:37:19.386Z,38.32
2022-07-25T11:39:49.153Z,37.89
2022-07-25T11:42:20.942Z,37.79
2022-07-25T11:44:50.787Z,38.11
2022-07-25T11:47:28.571Z,38.68
2022-07-25T11:49:59.228Z,38.74
2022-07-25T11:52:30.063Z,38.28
2022-07-25T11:55:00.420Z,38.42
2022-07-25T11:57:32.776Z,39.03
2022-07-25T12:00:02.811Z,38.48
2022-07-25T12:02:33.340Z,38.06
2022-07-25T12:05:04.089Z,38.93
2022-07-25T12:07:40.161Z,38.99
2022-07-25T12:10:11.436Z,38.30
2022-07-25T12:12:46.058Z,36.36
2022-07-25T12:15:15.346Z,36.67
2022-07-25T12:17:44.679Z,37.28
2022-07-25T12:20:17.146Z,38.44
2022-07-25T12:22:46.220Z,38.45
2022-07-25T12:25:15.310Z,38.00
2022-07-25T12:27:45.624Z,37.91
2022-07-25T12:30:15.185Z,37.63
2022-07-25T12:32:44.096Z,37.37
2022-07-25T12:35:15.273Z,38.18
2022-07-25T12:37:44.471Z,38.18
2022-07-25T12:40:15.116Z,38.92
2022-07-25T12:42:45.776Z,38.54
2022-07-25T12:45:15.683Z,39.07
2022-07-25T12:47:45.297Z,38.82
2022-07-25T12:50:14.213Z,38.55
2022-07-25T12:52:43.357Z,38.86
2022-07-25T12:55:14.736Z,39.20
2022-07-25T12:57:45.197Z,38.01
2022-07-25T13:00:18.551Z,37.79
2022-07-25T13:02:47.092Z,37.18
2022-07-25T13:05:15.844Z,37.08
2022-07-25T13:07:44.407Z,36.99
2022-07-25T13:10:13.060Z,37.49
2022-07-25T13:12:41.446Z,37.42
2022-07-25T13:15:12.011Z,37.61
2022-07-25T13:17:41.397Z,37.71
2022-07-25T13:20:11.239Z,38.24
2022-07-25T13:22:39.925Z,37.83
2022-07-25T13:25:09.141Z,37.93
2022-07-25T13:27:39.331Z,37.61
2022-07-25T13:30:11.797Z,37.87
2022-07-25T13:32:40.145Z,37.47
2022-07-25T13:35:09.291Z,37.30
2022-07-25T13:37:37.660Z,37.70
2022-07-25T13:40:07.305Z,37.34
2022-07-25T13:42:35.725Z,37.23
2022-07-25T13:45:04.278Z,37.59
2022-07-25T13:47:35.945Z,37.47
2022-07-25T13:50:04.673Z,36.90
2022-07-25T13:52:33.147Z,36.88
2022-07-25T13:55:01.529Z,36.96
2022-07-25T13:57:30.003Z,36.63
2022-07-25T13:59:58.666Z,36.31
2022-07-25T14:02:27.223Z,34.94
2022-07-25T14:05:00.852Z,34.84
2022-07-25T14:07:32.038Z,34.33
2022-07-25T14:10:00.444Z,34.55
2022-07-25T14:12:28.922Z,34.18
2022-07-25T14:14:57.297Z,34.36
2022-07-25T14:17:29.810Z,34.80
2022-07-25T14:20:00.311Z,35.22
2022-07-25T14:22:28.787Z,34.85
2022-07-25T14:24:57.205Z,35.06
2022-07-25T14:27:25.966Z,34.98
2022-07-25T14:29:55.172Z,35.35
2022-07-25T14:32:23.635Z,34.94
2022-07-25T14:34:52.705Z,34.63
2022-07-25T14:37:23.667Z,35.31
2022-07-25T14:39:52.357Z,35.28
2022-07-25T14:42:20.737Z,35.61
2022-07-25T14:44:49.136Z,35.81
2022-07-25T14:47:17.637Z,35.40
2022-07-25T14:49:46.037Z,35.59
2022-07-25T14:52:14.979Z,35.39
2022-07-25T14:54:44.685Z,35.19
2022-07-25T14:57:13.064Z,34.80
2022-07-25T14:59:41.482Z,33.46
2022-07-25T15:02:11.168Z,34.64
2022-07-25T15:04:39.728Z,34.69
2022-07-25T15:07:08.508Z,34.55
2022-07-25T15:09:37.029Z,34.43
2022-07-25T15:12:07.641Z,33.96
2022-07-25T15:14:36.096Z,34.19
2022-07-25T15:17:04.549Z,34.14
2022-07-25T15:19:33.034Z,34.42
2022-07-25T15:22:01.482Z,34.42
2022-07-25T15:24:29.885Z,34.25
2022-07-25T15:26:58.789Z,34.30
2022-07-25T15:29:30.577Z,34.44
2022-07-25T15:31:59.007Z,34.37
2022-07-25T15:34:27.468Z,33.79
2022-07-25T15:36:56.328Z,33.64
2022-07-25T15:39:24.838Z,33.70
2022-07-25T15:41:53.301Z,33.88
2022-07-25T15:44:21.635Z,33.58
2022-07-25T15:46:51.555Z,33.98
2022-07-25T15:49:22.182Z,33.57
2022-07-25T15:51:50.944Z,33.43
2022-07-25T15:54:19.361Z,33.23
2022-07-25T15:56:47.915Z,32.99
2022-07-25T15:59:16.439Z,33.03
2022-07-25T16:01:44.953Z,33.10
2022-07-25T16:04:14.931Z,32.40
2022-07-25T16:06:43.548Z,32.85
2022-07-25T16:09:12.544Z,32.80
2022-07-25T16:11:41.034Z,32.85
2022-07-25T16:14:10.120Z,32.70
2022-07-25T16:16:38.701Z,32.73
2022-07-25T16:19:09.533Z,32.38
2022-07-25T16:21:40.107Z,32.51
2022-07-25T16:24:11.098Z,32.46
2022-07-25T16:26:39.613Z,32.45
2022-07-25T16:29:08.258Z,32.43
2022-07-25T16:31:37.070Z,32.11
2022-07-25T16:34:05.787Z,31.50
2022-07-25T16:36:34.107Z,31.76
2022-07-25T16:39:04.238Z,31.86
2022-07-25T16:41:32.865Z,31.77
2022-07-25T16:44:01.125Z,31.67
2022-07-25T16:46:29.869Z,31.73
2022-07-25T16:48:58.353Z,31.66
2022-07-25T16:51:26.712Z,31.66
2022-07-25T16:53:55.485Z,31.53
2022-07-25T16:56:26.626Z,31.64
2022-07-25T16:58:55.152Z,31.52
2022-07-25T17:01:25.033Z,31.50
2022-07-25T17:03:53.608Z,31.19
2022-07-25T17:06:21.979Z,31.17
2022-07-25T17:08:50.408Z,30.88
2022-07-25T17:11:19.149Z,30.69
2022-07-25T17:13:48.896Z,30.74
2022-07-25T17:16:17.448Z,30.60
2022-07-25T17:18:46.682Z,29.85
2022-07-25T17:21:16.897Z,29.83
2022-07-25T17:23:45.409Z,29.60
2022-07-25T17:26:13.862Z,29.40
2022-07-25T17:28:42.271Z,29.30
2022-07-25T17:31:12.233Z,29.31
2022-07-25T17:33:40.697Z,28.79
2022-07-25T17:36:09.669Z,28.72
2022-07-25T17:38:38.711Z,29.06
2022-07-25T17:41:07.700Z,29.24
2022-07-25T17:43:36.055Z,29.08
2022-07-25T17:46:04.513Z,29.26
2022-07-25T17:48:34.484Z,29.19
2022-07-25T17:51:02.995Z,29.07
2022-07-25T17:53:31.377Z,28.94
2022-07-25T17:55:59.860Z,28.88
2022-07-25T17:58:28.319Z,28.93
2022-07-25T18:01:00.998Z,28.78
2022-07-25T18:03:30.040Z,28.67
2022-07-25T18:06:00.232Z,28.86
2022-07-25T18:08:30.690Z,28.29
2022-07-25T18:10:59.151Z,27.51
2022-07-25T18:13:27.803Z,27.53
2022-07-25T18:15:56.229Z,27.33
2022-07-25T18:18:24.782Z,27.12
2022-07-25T18:20:53.103Z,26.92
2022-07-25T18:23:24.303Z,27.09
2022-07-25T18:25:54.874Z,26.99
2022-07-25T18:28:25.008Z,26.75
2022-07-25T18:30:55.145Z,26.93
2022-07-25T18:33:23.542Z,27.23
2022-07-25T18:35:52.150Z,27.48
2022-07-25T18:38:20.778Z,27.30
2022-07-25T18:41:06.499Z,27.08
2022-07-25T18:43:39.215Z,27.02
2022-07-25T18:46:07.920Z,27.19
2022-07-25T18:48:38.122Z,27.54
2022-07-25T18:51:06.771Z,27.65
2022-07-25T18:53:35.552Z,27.69
2022-07-25T18:56:06.962Z,27.70
2022-07-25T18:58:35.917Z,27.74
2022-07-25T19:01:04.326Z,27.71
2022-07-25T19:03:34.973Z,27.60
2022-07-25T19:06:03.835Z,27.66
2022-07-25T19:08:32.401Z,27.56
2022-07-25T19:11:01.092Z,26.57
2022-07-25T19:13:48.832Z,26.67
2022-07-25T19:16:18.815Z,26.10
2022-07-25T19:18:47.433Z,26.00
2022-07-25T19:21:15.861Z,26.03
2022-07-25T19:23:50.149Z,26.24
2022-07-25T19:26:19.630Z,26.42
2022-07-25T19:28:49.565Z,26.12
2022-07-25T19:31:18.414Z,26.02
2022-07-25T19:33:47.210Z,25.68
2022-07-25T19:36:15.622Z,25.70
2022-07-25T19:38:44.059Z,25.86
2022-07-25T19:41:12.722Z,25.83
2022-07-25T19:43:41.214Z,25.86
2022-07-25T19:46:11.073Z,26.08
2022-07-25T19:48:39.683Z,26.29
2022-07-25T19:51:08.683Z,26.46
2022-07-25T19:53:37.575Z,26.24
2022-07-25T19:56:06.804Z,26.21
2022-07-25T19:58:38.668Z,26.47
2022-07-25T20:01:07.765Z,26.16
2022-07-25T20:03:37.784Z,26.45
2022-07-25T20:06:08.457Z,26.54
2022-07-25T20:08:39.592Z,26.64
2022-07-25T20:11:08.659Z,26.62
2022-07-25T20:13:37.244Z,26.46
2022-07-25T20:16:06.439Z,26.60
2022-07-25T20:18:35.245Z,26.71
2022-07-25T20:21:05.211Z,26.74
2022-07-25T20:23:34.153Z,26.27
2022-07-25T20:26:04.313Z,26.49
2022-07-25T20:28:33.414Z,26.48
2022-07-25T20:31:03.055Z,26.58
2022-07-25T20:33:32.188Z,26.64
2022-07-25T20:36:00.850Z,26.53
2022-07-25T20:38:32.393Z,26.54
2022-07-25T20:41:01.369Z,26.52
2022-07-25T20:43:33.567Z,25.92
2022-07-25T20:46:05.061Z,25.55
2022-07-25T20:48:37.539Z,25.59
2022-07-25T20:51:06.268Z,25.82
2022-07-25T20:53:36.059Z,25.29
2022-07-25T20:56:04.545Z,25.19
2022-07-25T20:58:33.039Z,25.27
2022-07-25T21:01:01.495Z,25.71
2022-07-25T21:03:31.099Z,26.02
2022-07-25T21:06:01.491Z,25.62
2022-07-25T21:08:29.889Z,25.91
2022-07-25T21:11:00.001Z,26.13
2022-07-25T21:13:30.807Z,26.22
2022-07-25T21:16:01.382Z,26.10
2022-07-25T21:18:29.781Z,25.95
2022-07-25T21:20:58.665Z,26.13
2022-07-25T21:23:27.599Z,25.95
2022-07-25T21:25:55.983Z,26.18
2022-07-25T21:28:26.032Z,26.17
2022-07-25T21:30:54.634Z,26.04
2022-07-25T21:33:23.011Z,26.06
2022-07-25T21:35:53.126Z,26.10
2022-07-25T21:38:26.681Z,26.00
2022-07-25T21:40:57.042Z,25.63
2022-07-25T21:43:26.857Z,25.88
2022-07-25T21:45:55.486Z,24.84
2022-07-25T21:48:45.126Z,25.89
2022-07-25T21:51:19.228Z,25.85
2022-07-25T21:53:51.971Z,25.60
2022-07-25T21:56:21.081Z,25.73
2022-07-25T21:58:50.983Z,25.64
2022-07-25T22:01:21.622Z,25.41
2022-07-25T22:03:50.256Z,24.36
2022-07-25T22:06:19.349Z,24.88
2022-07-25T22:08:47.978Z,24.66
2022-07-25T22:11:38.540Z,24.99
2022-07-25T22:14:09.016Z,25.49
2022-07-25T22:16:37.560Z,25.45
2022-07-25T22:19:06.436Z,24.46
2022-07-25T22:21:35.371Z,25.23
2022-07-25T22:24:03.829Z,25.31
2022-07-25T22:26:32.180Z,24.31
2022-07-25T22:29:00.596Z,25.44
2022-07-25T22:31:31.373Z,24.55
2022-07-25T22:33:59.768Z,24.17
2022-07-25T22:36:28.123Z,24.90
2022-07-25T22:38:56.699Z,24.75
2022-07-25T22:41:25.098Z,25.13
2022-07-25T22:43:58.873Z,25.25
2022-07-25T22:46:30.583Z,25.12
2022-07-25T22:49:00.276Z,25.16
2022-07-25T22:51:29.760Z,24.17
2022-07-25T22:53:58.462Z,24.29
2022-07-25T22:56:27.132Z,25.19
2022-07-25T22:58:56.293Z,23.76
2022-07-25T23:01:25.397Z,24.23
2022-07-25T23:03:55.192Z,24.90
2022-07-25T23:06:23.749Z,24.55
2022-07-25T23:08:53.051Z,24.92
2022-07-25T23:11:21.466Z,25.12
2022-07-25T23:13:49.846Z,24.29
2022-07-25T23:16:18.239Z,24.01
2022-07-25T23:18:46.819Z,24.74
2022-07-25T23:21:16.578Z,24.90
2022-07-25T23:23:45.014Z,24.60
2022-07-25T23:26:13.347Z,24.94
2022-07-25T23:28:41.763Z,23.88
2022-07-25T23:31:10.202Z,23.94
2022-07-25T23:33:38.620Z,24.79
2022-07-25T23:36:07.377Z,24.92
2022-07-25T23:38:37.221Z,24.86
2022-07-25T23:41:06.470Z,24.74
2022-07-25T23:43:59.197Z,24.77
2022-07-25T23:46:27.701Z,24.76
2022-07-25T23:48:58.326Z,24.48
2022-07-25T23:51:26.714Z,24.31
2022-07-25T23:53:56.508Z,24.11
2022-07-25T23:56:25.013Z,24.33
2022-07-25T23:58:53.373Z,24.61
